sensor_id;sensor_type;location;lat;lon;timestamp;pressure;altitude;pressure_sealevel;temperature
79495;BMP180;68951;53.130;18.104;2023-07-13T00:01:53;100673.20;;;
79495;BMP180;68951;53.130;18.104;2023-07-13T00:04:22;100669.00;;;
79495;BMP180;68951;53.130;18.104;2023-07-13T00:06:52;100662.40;;;
79495;BMP180;68951;53.130;18.104;2023-07-13T00:09:20;100662.80;;;
79495;BMP180;68951;53.130;18.104;2023-07-13T00:11:56;100666.20;;;
79495;BMP180;68951;53.130;18.104;2023-07-13T00:14:27;100671.40;;;
79495;BMP180;68951;53.130;18.104;2023-07-13T00:16:55;100668.80;;;
79495;BMP180;68951;53.130;18.104;2023-07-13T00:19:22;100670.40;;;
79495;BMP180;68951;53.130;18.104;2023-07-13T00:21:48;100673.60;;;
79495;BMP180;68951;53.130;18.104;2023-07-13T00:24:17;100674.60;;;
79495;BMP180;68951;53.130;18.104;2023-07-13T00:26:50;100678.40;;;
79495;BMP180;68951;53.130;18.104;2023-07-13T00:29:17;100678.40;;;
79495;BMP180;68951;53.130;18.104;2023-07-13T00:31:44;100681.40;;;
79495;BMP180;68951;53.130;18.104;2023-07-13T00:34:11;100678.80;;;
79495;BMP180;68951;53.130;18.104;2023-07-13T00:36:38;100679.40;;;
79495;BMP180;68951;53.130;18.104;2023-07-13T00:39:05;100682.00;;;
79495;BMP180;68951;53.130;18.104;2023-07-13T00:41:32;100689.20;;;
79495;BMP180;68951;53.130;18.104;2023-07-13T00:43:59;100692.40;;;
79495;BMP180;68951;53.130;18.104;2023-07-13T00:46:30;100695.20;;;
79495;BMP180;68951;53.130;18.104;2023-07-13T00:49:03;100694.20;;;
79495;BMP180;68951;53.130;18.104;2023-07-13T00:51:37;100698.60;;;
79495;BMP180;68951;53.130;18.104;2023-07-13T00:54:11;100700.40;;;
79495;BMP180;68951;53.130;18.104;2023-07-13T00:56:41;100704.40;;;
79495;BMP180;68951;53.130;18.104;2023-07-13T00:59:12;100712.80;;;
79495;BMP180;68951;53.130;18.104;2023-07-13T01:01:39;100720.20;;;
79495;BMP180;68951;53.130;18.104;2023-07-13T01:04:06;100729.20;;;
79495;BMP180;68951;53.130;18.104;2023-07-13T01:06:37;100737.80;;;
79495;BMP180;68951;53.130;18.104;2023-07-13T01:09:06;100731.20;;;
79495;BMP180;68951;53.130;18.104;2023-07-13T01:11:33;100721.00;;;
79495;BMP180;68951;53.130;18.104;2023-07-13T01:14:02;100720.80;;;
79495;BMP180;68951;53.130;18.104;2023-07-13T01:16:33;100722.60;;;
79495;BMP180;68951;53.130;18.104;2023-07-13T01:19:00;100713.40;;;
79495;BMP180;68951;53.130;18.104;2023-07-13T01:21:29;100707.00;;;
79495;BMP180;68951;53.130;18.104;2023-07-13T01:23:59;100704.80;;;
79495;BMP180;68951;53.130;18.104;2023-07-13T01:26:26;100701.60;;;
79495;BMP180;68951;53.130;18.104;2023-07-13T01:28:53;100700.60;;;
79495;BMP180;68951;53.130;18.104;2023-07-13T01:31:23;100699.20;;;
79495;BMP180;68951;53.130;18.104;2023-07-13T01:33:51;100699.80;;;
79495;BMP180;68951;53.130;18.104;2023-07-13T01:36:18;100705.80;;;
79495;BMP180;68951;53.130;18.104;2023-07-13T01:38:47;100708.20;;;
79495;BMP180;68951;53.130;18.104;2023-07-13T01:41:14;100706.80;;;
79495;BMP180;68951;53.130;18.104;2023-07-13T01:43:41;100707.00;;;
79495;BMP180;68951;53.130;18.104;2023-07-13T01:46:08;100712.00;;;
79495;BMP180;68951;53.130;18.104;2023-07-13T01:48:34;100715.00;;;
79495;BMP180;68951;53.130;18.104;2023-07-13T01:51:01;100719.80;;;
79495;BMP180;68951;53.130;18.104;2023-07-13T01:53:28;100728.20;;;
79495;BMP180;68951;53.130;18.104;2023-07-13T01:55:55;100733.60;;;
79495;BMP180;68951;53.130;18.104;2023-07-13T01:58:22;100736.40;;;
79495;BMP180;68951;53.130;18.104;2023-07-13T02:00:51;100738.20;;;
79495;BMP180;68951;53.130;18.104;2023-07-13T02:03:17;100733.40;;;
79495;BMP180;68951;53.130;18.104;2023-07-13T02:05:46;100728.20;;;
79495;BMP180;68951;53.130;18.104;2023-07-13T02:08:13;100727.80;;;
79495;BMP180;68951;53.130;18.104;2023-07-13T02:10:39;100725.40;;;
79495;BMP180;68951;53.130;18.104;2023-07-13T02:13:07;100723.40;;;
79495;BMP180;68951;53.130;18.104;2023-07-13T02:15:34;100724.80;;;
79495;BMP180;68951;53.130;18.104;2023-07-13T02:18:04;100721.80;;;
79495;BMP180;68951;53.130;18.104;2023-07-13T02:20:31;100718.80;;;
79495;BMP180;68951;53.130;18.104;2023-07-13T02:22:58;100711.00;;;
79495;BMP180;68951;53.130;18.104;2023-07-13T02:25:25;100703.60;;;
79495;BMP180;68951;53.130;18.104;2023-07-13T02:27:53;100700.40;;;
79495;BMP180;68951;53.130;18.104;2023-07-13T02:30:20;100701.40;;;
79495;BMP180;68951;53.130;18.104;2023-07-13T02:32:46;100702.40;;;
79495;BMP180;68951;53.130;18.104;2023-07-13T02:35:13;100696.20;;;
79495;BMP180;68951;53.130;18.104;2023-07-13T02:37:40;100698.40;;;
79495;BMP180;68951;53.130;18.104;2023-07-13T02:40:08;100697.60;;;
79495;BMP180;68951;53.130;18.104;2023-07-13T02:42:35;100699.20;;;
79495;BMP180;68951;53.130;18.104;2023-07-13T02:45:02;100700.80;;;
79495;BMP180;68951;53.130;18.104;2023-07-13T02:47:29;100700.40;;;
79495;BMP180;68951;53.130;18.104;2023-07-13T02:49:55;100701.60;;;
79495;BMP180;68951;53.130;18.104;2023-07-13T02:52:22;100700.60;;;
79495;BMP180;68951;53.130;18.104;2023-07-13T02:54:49;100702.60;;;
79495;BMP180;68951;53.130;18.104;2023-07-13T02:57:16;100705.00;;;
79495;BMP180;68951;53.130;18.104;2023-07-13T02:59:43;100704.40;;;
79495;BMP180;68951;53.130;18.104;2023-07-13T03:02:10;100703.40;;;
79495;BMP180;68951;53.130;18.104;2023-07-13T03:04:37;100700.40;;;
79495;BMP180;68951;53.130;18.104;2023-07-13T03:07:04;100689.60;;;
79495;BMP180;68951;53.130;18.104;2023-07-13T03:09:33;100688.40;;;
79495;BMP180;68951;53.130;18.104;2023-07-13T03:12:00;100692.00;;;
79495;BMP180;68951;53.130;18.104;2023-07-13T03:14:28;100691.80;;;
79495;BMP180;68951;53.130;18.104;2023-07-13T03:16:54;100692.20;;;
79495;BMP180;68951;53.130;18.104;2023-07-13T03:19:21;100688.80;;;
79495;BMP180;68951;53.130;18.104;2023-07-13T03:21:48;100694.40;;;
79495;BMP180;68951;53.130;18.104;2023-07-13T03:24:15;100691.00;;;
79495;BMP180;68951;53.130;18.104;2023-07-13T03:26:42;100687.60;;;
79495;BMP180;68951;53.130;18.104;2023-07-13T03:29:09;100692.00;;;
79495;BMP180;68951;53.130;18.104;2023-07-13T03:31:36;100702.00;;;
79495;BMP180;68951;53.130;18.104;2023-07-13T03:34:04;100707.00;;;
79495;BMP180;68951;53.130;18.104;2023-07-13T03:36:32;100710.20;;;
79495;BMP180;68951;53.130;18.104;2023-07-13T03:39:01;100715.20;;;
79495;BMP180;68951;53.130;18.104;2023-07-13T03:41:29;100715.20;;;
79495;BMP180;68951;53.130;18.104;2023-07-13T03:43:56;100713.60;;;
79495;BMP180;68951;53.130;18.104;2023-07-13T03:46:22;100714.80;;;
79495;BMP180;68951;53.130;18.104;2023-07-13T03:48:49;100716.60;;;
79495;BMP180;68951;53.130;18.104;2023-07-13T03:51:17;100715.20;;;
79495;BMP180;68951;53.130;18.104;2023-07-13T03:53:46;100717.20;;;
79495;BMP180;68951;53.130;18.104;2023-07-13T03:56:15;100722.60;;;
79495;BMP180;68951;53.130;18.104;2023-07-13T03:58:46;100724.00;;;
79495;BMP180;68951;53.130;18.104;2023-07-13T04:01:14;100731.00;;;
79495;BMP180;68951;53.130;18.104;2023-07-13T04:03:42;100738.80;;;
79495;BMP180;68951;53.130;18.104;2023-07-13T04:06:18;100739.40;;;
79495;BMP180;68951;53.130;18.104;2023-07-13T04:08:54;100739.00;;;
79495;BMP180;68951;53.130;18.104;2023-07-13T04:11:23;100740.00;;;
79495;BMP180;68951;53.130;18.104;2023-07-13T04:13:51;100738.20;;;
79495;BMP180;68951;53.130;18.104;2023-07-13T04:16:19;100746.60;;;
79495;BMP180;68951;53.130;18.104;2023-07-13T04:18:47;100749.00;;;
79495;BMP180;68951;53.130;18.104;2023-07-13T04:21:15;100750.00;;;
79495;BMP180;68951;53.130;18.104;2023-07-13T04:23:43;100746.40;;;
79495;BMP180;68951;53.130;18.104;2023-07-13T04:26:10;100740.40;;;
79495;BMP180;68951;53.130;18.104;2023-07-13T04:28:36;100737.80;;;
79495;BMP180;68951;53.130;18.104;2023-07-13T04:31:04;100727.60;;;
79495;BMP180;68951;53.130;18.104;2023-07-13T04:33:30;100727.00;;;
79495;BMP180;68951;53.130;18.104;2023-07-13T04:35:57;100738.40;;;
79495;BMP180;68951;53.130;18.104;2023-07-13T04:38:31;100745.60;;;
79495;BMP180;68951;53.130;18.104;2023-07-13T04:41:03;100754.60;;;
79495;BMP180;68951;53.130;18.104;2023-07-13T04:43:32;100752.00;;;
79495;BMP180;68951;53.130;18.104;2023-07-13T04:46:06;100751.80;;;
79495;BMP180;68951;53.130;18.104;2023-07-13T04:48:33;100752.80;;;
79495;BMP180;68951;53.130;18.104;2023-07-13T04:51:01;100758.00;;;
79495;BMP180;68951;53.130;18.104;2023-07-13T04:53:30;100766.80;;;
79495;BMP180;68951;53.130;18.104;2023-07-13T04:55:56;100783.60;;;
79495;BMP180;68951;53.130;18.104;2023-07-13T04:58:24;100793.60;;;
79495;BMP180;68951;53.130;18.104;2023-07-13T05:00:52;100797.80;;;
79495;BMP180;68951;53.130;18.104;2023-07-13T05:03:19;100794.40;;;
79495;BMP180;68951;53.130;18.104;2023-07-13T05:06:01;100793.20;;;
79495;BMP180;68951;53.130;18.104;2023-07-13T05:08:29;100797.00;;;
79495;BMP180;68951;53.130;18.104;2023-07-13T05:11:00;100801.20;;;
79495;BMP180;68951;53.130;18.104;2023-07-13T05:13:27;100805.40;;;
79495;BMP180;68951;53.130;18.104;2023-07-13T05:16:01;100803.00;;;
79495;BMP180;68951;53.130;18.104;2023-07-13T05:18:29;100798.40;;;
79495;BMP180;68951;53.130;18.104;2023-07-13T05:21:03;100797.20;;;
79495;BMP180;68951;53.130;18.104;2023-07-13T05:23:32;100798.80;;;
79495;BMP180;68951;53.130;18.104;2023-07-13T05:26:00;100807.80;;;
79495;BMP180;68951;53.130;18.104;2023-07-13T05:28:28;100804.00;;;
79495;BMP180;68951;53.130;18.104;2023-07-13T05:30:55;100804.00;;;
79495;BMP180;68951;53.130;18.104;2023-07-13T05:33:23;100810.60;;;
79495;BMP180;68951;53.130;18.104;2023-07-13T05:35:50;100812.20;;;
79495;BMP180;68951;53.130;18.104;2023-07-13T05:38:17;100809.80;;;
79495;BMP180;68951;53.130;18.104;2023-07-13T05:40:45;100820.40;;;
79495;BMP180;68951;53.130;18.104;2023-07-13T05:43:13;100826.00;;;
79495;BMP180;68951;53.130;18.104;2023-07-13T05:45:41;100828.20;;;
79495;BMP180;68951;53.130;18.104;2023-07-13T05:48:07;100830.60;;;
79495;BMP180;68951;53.130;18.104;2023-07-13T05:50:34;100823.60;;;
79495;BMP180;68951;53.130;18.104;2023-07-13T05:53:01;100823.60;;;
79495;BMP180;68951;53.130;18.104;2023-07-13T05:55:28;100817.20;;;
79495;BMP180;68951;53.130;18.104;2023-07-13T05:57:55;100820.80;;;
79495;BMP180;68951;53.130;18.104;2023-07-13T06:00:25;100823.40;;;
79495;BMP180;68951;53.130;18.104;2023-07-13T06:02:52;100823.80;;;
79495;BMP180;68951;53.130;18.104;2023-07-13T06:05:19;100828.40;;;
79495;BMP180;68951;53.130;18.104;2023-07-13T06:07:46;100823.60;;;
79495;BMP180;68951;53.130;18.104;2023-07-13T06:10:12;100825.20;;;
79495;BMP180;68951;53.130;18.104;2023-07-13T06:12:39;100819.20;;;
79495;BMP180;68951;53.130;18.104;2023-07-13T06:15:07;100819.20;;;
79495;BMP180;68951;53.130;18.104;2023-07-13T06:17:34;100817.40;;;
79495;BMP180;68951;53.130;18.104;2023-07-13T06:20:01;100815.00;;;
79495;BMP180;68951;53.130;18.104;2023-07-13T06:22:27;100810.80;;;
79495;BMP180;68951;53.130;18.104;2023-07-13T06:24:54;100810.00;;;
79495;BMP180;68951;53.130;18.104;2023-07-13T06:27:21;100807.40;;;
79495;BMP180;68951;53.130;18.104;2023-07-13T06:29:48;100813.00;;;
79495;BMP180;68951;53.130;18.104;2023-07-13T06:32:14;100817.80;;;
79495;BMP180;68951;53.130;18.104;2023-07-13T06:34:41;100817.80;;;
79495;BMP180;68951;53.130;18.104;2023-07-13T06:37:09;100818.00;;;
79495;BMP180;68951;53.130;18.104;2023-07-13T06:39:36;100816.40;;;
79495;BMP180;68951;53.130;18.104;2023-07-13T06:42:03;100819.80;;;
79495;BMP180;68951;53.130;18.104;2023-07-13T06:44:31;100823.40;;;
79495;BMP180;68951;53.130;18.104;2023-07-13T06:46:57;100819.60;;;
79495;BMP180;68951;53.130;18.104;2023-07-13T06:49:24;100821.00;;;
79495;BMP180;68951;53.130;18.104;2023-07-13T06:51:51;100826.00;;;
79495;BMP180;68951;53.130;18.104;2023-07-13T06:54:18;100833.00;;;
79495;BMP180;68951;53.130;18.104;2023-07-13T06:56:45;100836.00;;;
79495;BMP180;68951;53.130;18.104;2023-07-13T06:59:11;100844.40;;;
79495;BMP180;68951;53.130;18.104;2023-07-13T07:01:38;100850.20;;;
79495;BMP180;68951;53.130;18.104;2023-07-13T07:04:05;100848.80;;;
79495;BMP180;68951;53.130;18.104;2023-07-13T07:06:32;100847.80;;;
79495;BMP180;68951;53.130;18.104;2023-07-13T07:08:59;100843.40;;;
79495;BMP180;68951;53.130;18.104;2023-07-13T07:11:26;100837.40;;;
79495;BMP180;68951;53.130;18.104;2023-07-13T07:13:53;100842.40;;;
79495;BMP180;68951;53.130;18.104;2023-07-13T07:16:21;100848.20;;;
79495;BMP180;68951;53.130;18.104;2023-07-13T07:18:48;100857.60;;;
79495;BMP180;68951;53.130;18.104;2023-07-13T07:21:15;100861.40;;;
79495;BMP180;68951;53.130;18.104;2023-07-13T07:23:43;100864.20;;;
79495;BMP180;68951;53.130;18.104;2023-07-13T07:26:10;100857.60;;;
79495;BMP180;68951;53.130;18.104;2023-07-13T07:28:38;100853.40;;;
79495;BMP180;68951;53.130;18.104;2023-07-13T07:31:05;100850.60;;;
79495;BMP180;68951;53.130;18.104;2023-07-13T07:33:33;100856.20;;;
79495;BMP180;68951;53.130;18.104;2023-07-13T07:36:02;100854.20;;;
79495;BMP180;68951;53.130;18.104;2023-07-13T07:38:29;100853.60;;;
79495;BMP180;68951;53.130;18.104;2023-07-13T07:40:56;100850.40;;;
79495;BMP180;68951;53.130;18.104;2023-07-13T07:43:23;100849.00;;;
79495;BMP180;68951;53.130;18.104;2023-07-13T07:45:50;100852.80;;;
79495;BMP180;68951;53.130;18.104;2023-07-13T07:48:17;100845.20;;;
79495;BMP180;68951;53.130;18.104;2023-07-13T07:50:43;100847.80;;;
79495;BMP180;68951;53.130;18.104;2023-07-13T07:53:10;100854.00;;;
79495;BMP180;68951;53.130;18.104;2023-07-13T07:55:37;100857.00;;;
79495;BMP180;68951;53.130;18.104;2023-07-13T07:58:05;100860.80;;;
79495;BMP180;68951;53.130;18.104;2023-07-13T08:00:32;100864.20;;;
79495;BMP180;68951;53.130;18.104;2023-07-13T08:02:59;100869.80;;;
79495;BMP180;68951;53.130;18.104;2023-07-13T08:05:27;100869.00;;;
79495;BMP180;68951;53.130;18.104;2023-07-13T08:07:54;100871.40;;;
79495;BMP180;68951;53.130;18.104;2023-07-13T08:10:21;100875.80;;;
79495;BMP180;68951;53.130;18.104;2023-07-13T08:12:48;100875.60;;;
79495;BMP180;68951;53.130;18.104;2023-07-13T08:15:16;100874.80;;;
79495;BMP180;68951;53.130;18.104;2023-07-13T08:17:43;100870.20;;;
79495;BMP180;68951;53.130;18.104;2023-07-13T08:20:10;100871.40;;;
79495;BMP180;68951;53.130;18.104;2023-07-13T08:22:37;100869.60;;;
79495;BMP180;68951;53.130;18.104;2023-07-13T08:25:05;100867.00;;;
79495;BMP180;68951;53.130;18.104;2023-07-13T08:27:32;100865.80;;;
79495;BMP180;68951;53.130;18.104;2023-07-13T08:29:59;100861.80;;;
79495;BMP180;68951;53.130;18.104;2023-07-13T08:32:26;100858.20;;;
79495;BMP180;68951;53.130;18.104;2023-07-13T08:34:53;100860.80;;;
79495;BMP180;68951;53.130;18.104;2023-07-13T08:37:20;100859.80;;;
79495;BMP180;68951;53.130;18.104;2023-07-13T08:39:47;100854.80;;;
79495;BMP180;68951;53.130;18.104;2023-07-13T08:42:52;100848.40;;;
79495;BMP180;68951;53.130;18.104;2023-07-13T08:48:01;100839.00;;;
79495;BMP180;68951;53.130;18.104;2023-07-13T08:50:34;100834.40;;;
79495;BMP180;68951;53.130;18.104;2023-07-13T08:53:04;100837.80;;;
79495;BMP180;68951;53.130;18.104;2023-07-13T08:55:34;100830.60;;;
79495;BMP180;68951;53.130;18.104;2023-07-13T08:58:14;100833.60;;;
79495;BMP180;68951;53.130;18.104;2023-07-13T09:01:24;100840.00;;;
79495;BMP180;68951;53.130;18.104;2023-07-13T09:04:02;100846.80;;;
79495;BMP180;68951;53.130;18.104;2023-07-13T09:06:42;100850.80;;;
79495;BMP180;68951;53.130;18.104;2023-07-13T09:09:38;100857.20;;;
79495;BMP180;68951;53.130;18.104;2023-07-13T09:12:35;100870.20;;;
79495;BMP180;68951;53.130;18.104;2023-07-13T09:17:51;100869.20;;;
79495;BMP180;68951;53.130;18.104;2023-07-13T09:24:03;100856.60;;;
79495;BMP180;68951;53.130;18.104;2023-07-13T09:26:33;100854.20;;;
79495;BMP180;68951;53.130;18.104;2023-07-13T09:29:13;100856.80;;;
79495;BMP180;68951;53.130;18.104;2023-07-13T09:31:47;100860.20;;;
79495;BMP180;68951;53.130;18.104;2023-07-13T09:34:16;100859.00;;;
79495;BMP180;68951;53.130;18.104;2023-07-13T09:36:43;100859.60;;;
79495;BMP180;68951;53.130;18.104;2023-07-13T09:39:26;100858.20;;;
79495;BMP180;68951;53.130;18.104;2023-07-13T09:42:18;100863.00;;;
79495;BMP180;68951;53.130;18.104;2023-07-13T09:44:52;100860.80;;;
79495;BMP180;68951;53.130;18.104;2023-07-13T09:47:25;100850.40;;;
79495;BMP180;68951;53.130;18.104;2023-07-13T09:50:00;100852.60;;;
79495;BMP180;68951;53.130;18.104;2023-07-13T09:52:45;100853.40;;;
79495;BMP180;68951;53.130;18.104;2023-07-13T09:55:36;100850.00;;;
79495;BMP180;68951;53.130;18.104;2023-07-13T09:58:27;100851.80;;;
79495;BMP180;68951;53.130;18.104;2023-07-13T10:01:00;100847.80;;;
79495;BMP180;68951;53.130;18.104;2023-07-13T10:03:34;100842.40;;;
79495;BMP180;68951;53.130;18.104;2023-07-13T10:06:24;100844.20;;;
79495;BMP180;68951;53.130;18.104;2023-07-13T10:08:56;100841.20;;;
79495;BMP180;68951;53.130;18.104;2023-07-13T10:11:29;100836.40;;;
79495;BMP180;68951;53.130;18.104;2023-07-13T10:14:13;100837.80;;;
79495;BMP180;68951;53.130;18.104;2023-07-13T10:16:45;100837.00;;;
79495;BMP180;68951;53.130;18.104;2023-07-13T10:19:24;100840.00;;;
79495;BMP180;68951;53.130;18.104;2023-07-13T10:21:57;100848.40;;;
79495;BMP180;68951;53.130;18.104;2023-07-13T10:24:30;100841.40;;;
79495;BMP180;68951;53.130;18.104;2023-07-13T10:27:15;100841.00;;;
79495;BMP180;68951;53.130;18.104;2023-07-13T10:29:55;100844.00;;;
79495;BMP180;68951;53.130;18.104;2023-07-13T10:32:26;100838.60;;;
79495;BMP180;68951;53.130;18.104;2023-07-13T10:34:53;100835.40;;;
79495;BMP180;68951;53.130;18.104;2023-07-13T10:37:29;100846.20;;;
79495;BMP180;68951;53.130;18.104;2023-07-13T10:39:58;100849.40;;;
79495;BMP180;68951;53.130;18.104;2023-07-13T10:42:48;100847.60;;;
79495;BMP180;68951;53.130;18.104;2023-07-13T10:45:20;100846.60;;;
79495;BMP180;68951;53.130;18.104;2023-07-13T10:47:52;100837.20;;;
79495;BMP180;68951;53.130;18.104;2023-07-13T10:50:29;100833.60;;;
79495;BMP180;68951;53.130;18.104;2023-07-13T10:53:18;100842.20;;;
79495;BMP180;68951;53.130;18.104;2023-07-13T11:01:07;100841.20;;;
79495;BMP180;68951;53.130;18.104;2023-07-13T11:04:00;100836.20;;;
79495;BMP180;68951;53.130;18.104;2023-07-13T11:09:32;100834.20;;;
79495;BMP180;68951;53.130;18.104;2023-07-13T11:12:02;100835.60;;;
79495;BMP180;68951;53.130;18.104;2023-07-13T11:14:43;100837.20;;;
79495;BMP180;68951;53.130;18.104;2023-07-13T11:25:40;100859.20;;;
79495;BMP180;68951;53.130;18.104;2023-07-13T11:30:47;100850.20;;;
79495;BMP180;68951;53.130;18.104;2023-07-13T11:36:14;100862.60;;;
79495;BMP180;68951;53.130;18.104;2023-07-13T11:39:04;100858.00;;;
79495;BMP180;68951;53.130;18.104;2023-07-13T11:41:45;100859.00;;;
79495;BMP180;68951;53.130;18.104;2023-07-13T11:44:20;100855.40;;;
79495;BMP180;68951;53.130;18.104;2023-07-13T11:46:57;100858.80;;;
79495;BMP180;68951;53.130;18.104;2023-07-13T11:49:31;100859.80;;;
79495;BMP180;68951;53.130;18.104;2023-07-13T11:52:00;100864.60;;;
79495;BMP180;68951;53.130;18.104;2023-07-13T11:54:33;100867.80;;;
79495;BMP180;68951;53.130;18.104;2023-07-13T11:57:39;100868.20;;;
79495;BMP180;68951;53.130;18.104;2023-07-13T12:00:13;100865.00;;;
79495;BMP180;68951;53.130;18.104;2023-07-13T12:02:48;100858.80;;;
79495;BMP180;68951;53.130;18.104;2023-07-13T12:05:19;100865.00;;;
79495;BMP180;68951;53.130;18.104;2023-07-13T12:07:48;100860.40;;;
79495;BMP180;68951;53.130;18.104;2023-07-13T12:10:26;100857.20;;;
79495;BMP180;68951;53.130;18.104;2023-07-13T12:13:02;100849.60;;;
79495;BMP180;68951;53.130;18.104;2023-07-13T12:15:39;100845.20;;;
79495;BMP180;68951;53.130;18.104;2023-07-13T12:18:15;100841.60;;;
79495;BMP180;68951;53.130;18.104;2023-07-13T12:20:44;100846.80;;;
79495;BMP180;68951;53.130;18.104;2023-07-13T12:23:29;100840.00;;;
79495;BMP180;68951;53.130;18.104;2023-07-13T12:25:59;100847.60;;;
79495;BMP180;68951;53.130;18.104;2023-07-13T12:28:43;100849.80;;;
79495;BMP180;68951;53.130;18.104;2023-07-13T12:31:41;100842.00;;;
79495;BMP180;68951;53.130;18.104;2023-07-13T12:34:22;100830.00;;;
79495;BMP180;68951;53.130;18.104;2023-07-13T12:36:58;100821.00;;;
79495;BMP180;68951;53.130;18.104;2023-07-13T12:39:46;100825.80;;;
79495;BMP180;68951;53.130;18.104;2023-07-13T12:42:32;100829.00;;;
79495;BMP180;68951;53.130;18.104;2023-07-13T12:45:23;100835.20;;;
79495;BMP180;68951;53.130;18.104;2023-07-13T12:48:19;100835.80;;;
79495;BMP180;68951;53.130;18.104;2023-07-13T12:50:50;100834.40;;;
79495;BMP180;68951;53.130;18.104;2023-07-13T12:53:23;100822.40;;;
79495;BMP180;68951;53.130;18.104;2023-07-13T12:55:55;100830.80;;;
79495;BMP180;68951;53.130;18.104;2023-07-13T12:58:40;100836.80;;;
79495;BMP180;68951;53.130;18.104;2023-07-13T13:01:11;100838.00;;;
79495;BMP180;68951;53.130;18.104;2023-07-13T13:03:48;100836.80;;;
79495;BMP180;68951;53.130;18.104;2023-07-13T13:08:51;100844.40;;;
79495;BMP180;68951;53.130;18.104;2023-07-13T13:11:21;100847.80;;;
79495;BMP180;68951;53.130;18.104;2023-07-13T13:13:50;100845.80;;;
79495;BMP180;68951;53.130;18.104;2023-07-13T13:18:55;100859.80;;;
79495;BMP180;68951;53.130;18.104;2023-07-13T13:21:25;100863.20;;;
79495;BMP180;68951;53.130;18.104;2023-07-13T13:23:52;100851.20;;;
79495;BMP180;68951;53.130;18.104;2023-07-13T13:26:22;100848.80;;;
79495;BMP180;68951;53.130;18.104;2023-07-13T13:28:49;100834.20;;;
79495;BMP180;68951;53.130;18.104;2023-07-13T13:31:16;100844.00;;;
79495;BMP180;68951;53.130;18.104;2023-07-13T13:33:45;100857.60;;;
79495;BMP180;68951;53.130;18.104;2023-07-13T13:36:20;100851.60;;;
79495;BMP180;68951;53.130;18.104;2023-07-13T13:38:49;100852.20;;;
79495;BMP180;68951;53.130;18.104;2023-07-13T13:41:17;100850.00;;;
79495;BMP180;68951;53.130;18.104;2023-07-13T13:43:44;100848.40;;;
79495;BMP180;68951;53.130;18.104;2023-07-13T13:46:21;100847.80;;;
79495;BMP180;68951;53.130;18.104;2023-07-13T13:48:48;100848.20;;;
79495;BMP180;68951;53.130;18.104;2023-07-13T13:51:20;100834.60;;;
79495;BMP180;68951;53.130;18.104;2023-07-13T13:53:48;100837.80;;;
79495;BMP180;68951;53.130;18.104;2023-07-13T13:56:17;100839.60;;;
79495;BMP180;68951;53.130;18.104;2023-07-13T13:58:45;100838.80;;;
79495;BMP180;68951;53.130;18.104;2023-07-13T14:01:22;100840.20;;;
79495;BMP180;68951;53.130;18.104;2023-07-13T14:03:51;100848.00;;;
79495;BMP180;68951;53.130;18.104;2023-07-13T14:06:20;100842.80;;;
79495;BMP180;68951;53.130;18.104;2023-07-13T14:08:47;100844.00;;;
79495;BMP180;68951;53.130;18.104;2023-07-13T14:11:18;100842.00;;;
79495;BMP180;68951;53.130;18.104;2023-07-13T14:14:04;100843.00;;;
79495;BMP180;68951;53.130;18.104;2023-07-13T14:16:33;100848.60;;;
79495;BMP180;68951;53.130;18.104;2023-07-13T14:19:00;100849.60;;;
79495;BMP180;68951;53.130;18.104;2023-07-13T14:21:29;100839.60;;;
79495;BMP180;68951;53.130;18.104;2023-07-13T14:23:56;100844.20;;;
79495;BMP180;68951;53.130;18.104;2023-07-13T14:26:25;100844.00;;;
79495;BMP180;68951;53.130;18.104;2023-07-13T14:28:56;100838.00;;;
79495;BMP180;68951;53.130;18.104;2023-07-13T14:31:26;100836.20;;;
79495;BMP180;68951;53.130;18.104;2023-07-13T14:33:55;100827.40;;;
79495;BMP180;68951;53.130;18.104;2023-07-13T14:36:37;100842.00;;;
79495;BMP180;68951;53.130;18.104;2023-07-13T14:39:14;100835.60;;;
79495;BMP180;68951;53.130;18.104;2023-07-13T14:41:44;100829.80;;;
79495;BMP180;68951;53.130;18.104;2023-07-13T14:44:14;100838.40;;;
79495;BMP180;68951;53.130;18.104;2023-07-13T14:46:43;100829.40;;;
79495;BMP180;68951;53.130;18.104;2023-07-13T14:49:24;100823.00;;;
79495;BMP180;68951;53.130;18.104;2023-07-13T14:51:52;100831.40;;;
79495;BMP180;68951;53.130;18.104;2023-07-13T14:54:18;100826.60;;;
79495;BMP180;68951;53.130;18.104;2023-07-13T14:56:45;100830.20;;;
79495;BMP180;68951;53.130;18.104;2023-07-13T14:59:13;100831.20;;;
79495;BMP180;68951;53.130;18.104;2023-07-13T15:01:41;100828.20;;;
79495;BMP180;68951;53.130;18.104;2023-07-13T15:04:08;100828.20;;;
79495;BMP180;68951;53.130;18.104;2023-07-13T15:07:02;100828.00;;;
79495;BMP180;68951;53.130;18.104;2023-07-13T15:09:31;100828.00;;;
79495;BMP180;68951;53.130;18.104;2023-07-13T15:11:59;100830.40;;;
79495;BMP180;68951;53.130;18.104;2023-07-13T15:14:26;100828.20;;;
79495;BMP180;68951;53.130;18.104;2023-07-13T15:16:55;100826.80;;;
79495;BMP180;68951;53.130;18.104;2023-07-13T15:19:23;100828.40;;;
79495;BMP180;68951;53.130;18.104;2023-07-13T15:21:50;100830.80;;;
79495;BMP180;68951;53.130;18.104;2023-07-13T15:24:18;100832.00;;;
79495;BMP180;68951;53.130;18.104;2023-07-13T15:26:47;100831.80;;;
79495;BMP180;68951;53.130;18.104;2023-07-13T15:29:16;100827.20;;;
79495;BMP180;68951;53.130;18.104;2023-07-13T15:31:44;100829.00;;;
79495;BMP180;68951;53.130;18.104;2023-07-13T15:34:20;100828.40;;;
79495;BMP180;68951;53.130;18.104;2023-07-13T15:36:50;100827.40;;;
79495;BMP180;68951;53.130;18.104;2023-07-13T15:39:17;100822.60;;;
79495;BMP180;68951;53.130;18.104;2023-07-13T15:41:46;100819.20;;;
79495;BMP180;68951;53.130;18.104;2023-07-13T15:44:27;100821.00;;;
79495;BMP180;68951;53.130;18.104;2023-07-13T15:46:55;100823.80;;;